createdAt,value
2023-06-30T00:00:25.941Z,0.00
2023-06-30T00:00:59.291Z,0.00
2023-06-30T00:01:30.784Z,0.00
2023-06-30T00:02:02.596Z,0.00
2023-06-30T00:02:40.930Z,0.00
2023-06-30T00:03:10.198Z,0.00
2023-06-30T00:03:33.097Z,0.00
2023-06-30T00:03:55.483Z,0.00
2023-06-30T00:04:28.475Z,0.00
2023-06-30T00:04:58.102Z,0.00
2023-06-30T00:05:31.972Z,0.00
2023-06-30T00:06:02.338Z,0.00
2023-06-30T00:06:33.790Z,0.00
2023-06-30T00:07:00.064Z,0.00
2023-06-30T00:07:21.930Z,0.00
2023-06-30T00:07:54.241Z,0.00
2023-06-30T00:08:27.667Z,0.00
2023-06-30T00:08:57.764Z,0.00
2023-06-30T00:09:32.060Z,0.00
2023-06-30T00:10:02.617Z,0.00
2023-06-30T00:10:35.864Z,0.00
2023-06-30T00:10:56.976Z,0.00
2023-06-30T00:11:20.548Z,0.00
2023-06-30T00:11:54.088Z,0.00
2023-06-30T00:12:27.059Z,0.00
2023-06-30T00:12:57.946Z,0.00
2023-06-30T00:13:30.105Z,0.00
2023-06-30T00:14:01.714Z,0.00
2023-06-30T00:14:34.131Z,0.00
2023-06-30T00:15:02.411Z,0.00
2023-06-30T00:15:21.987Z,0.00
2023-06-30T00:15:54.808Z,0.00
2023-06-30T00:16:26.758Z,0.00
2023-06-30T00:16:58.185Z,0.00
2023-06-30T00:17:29.977Z,0.00
2023-06-30T00:18:03.364Z,0.00
2023-06-30T00:18:33.660Z,0.00
2023-06-30T00:18:56.292Z,0.00
2023-06-30T00:19:18.978Z,0.00
2023-06-30T00:19:54.463Z,0.00
2023-06-30T00:20:26.096Z,0.00
2023-06-30T00:21:03.003Z,0.00
2023-06-30T00:21:26.214Z,0.00
2023-06-30T00:22:02.056Z,0.00
2023-06-30T00:22:33.951Z,0.00
2023-06-30T00:22:56.868Z,0.00
2023-06-30T00:23:19.167Z,0.00
2023-06-30T00:23:53.833Z,0.00
2023-06-30T00:24:20.262Z,0.00
2023-06-30T00:24:57.826Z,0.00
2023-06-30T00:25:29.832Z,0.00
2023-06-30T00:26:02.332Z,0.00
2023-06-30T00:26:34.845Z,0.00
2023-06-30T00:27:00.056Z,0.00
2023-06-30T00:27:20.467Z,0.00
2023-06-30T00:27:55.140Z,0.00
2023-06-30T00:28:25.718Z,0.00
2023-06-30T00:29:00.055Z,0.00
2023-06-30T00:29:29.596Z,0.00
2023-06-30T00:30:05.616Z,0.00
2023-06-30T00:30:38.882Z,0.00
2023-06-30T00:31:01.870Z,0.00
2023-06-30T00:31:38.497Z,0.00
2023-06-30T00:32:00.585Z,0.00
2023-06-30T00:32:22.943Z,0.00
2023-06-30T00:32:57.722Z,0.00
2023-06-30T00:33:31.106Z,0.00
2023-06-30T00:34:01.729Z,0.00
2023-06-30T00:34:35.318Z,0.00
2023-06-30T00:34:56.846Z,0.00
2023-06-30T00:35:19.456Z,0.00
2023-06-30T00:35:53.547Z,0.00
2023-06-30T00:36:25.734Z,0.00
2023-06-30T00:36:58.323Z,0.00
2023-06-30T00:37:29.529Z,0.00
2023-06-30T00:38:02.266Z,0.00
2023-06-30T00:38:33.891Z,0.00
2023-06-30T00:38:56.609Z,0.00
2023-06-30T00:39:18.895Z,0.00
2023-06-30T00:39:53.539Z,0.00
2023-06-30T00:40:25.694Z,0.00
2023-06-30T00:40:57.673Z,0.00
2023-06-30T00:41:29.608Z,0.00
2023-06-30T00:42:02.289Z,0.00
2023-06-30T00:42:33.812Z,0.00
2023-06-30T00:42:57.768Z,0.00
2023-06-30T00:43:19.378Z,0.00
2023-06-30T00:43:55.034Z,0.00
2023-06-30T00:44:25.644Z,0.00
2023-06-30T00:44:57.484Z,0.00
2023-06-30T00:45:29.781Z,0.00
2023-06-30T00:46:01.907Z,0.00
2023-06-30T00:46:33.937Z,0.00
2023-06-30T00:46:57.018Z,0.00
2023-06-30T00:47:21.800Z,0.00
2023-06-30T00:47:53.616Z,0.00
2023-06-30T00:48:27.042Z,0.00
2023-06-30T00:48:59.126Z,0.00
2023-06-30T00:49:33.336Z,0.00
2023-06-30T00:50:02.037Z,0.00
2023-06-30T00:50:38.199Z,0.00
2023-06-30T00:50:56.618Z,0.00
2023-06-30T00:51:19.149Z,0.00
2023-06-30T00:51:53.652Z,0.00
2023-06-30T00:52:25.479Z,0.00
2023-06-30T00:52:57.590Z,0.00
2023-06-30T00:53:29.599Z,0.00
2023-06-30T00:54:01.799Z,0.00
2023-06-30T00:54:33.628Z,0.00
2023-06-30T00:54:57.801Z,0.00
2023-06-30T00:55:21.275Z,0.00
2023-06-30T00:55:53.827Z,0.00
2023-06-30T00:56:25.544Z,0.00
2023-06-30T00:56:57.582Z,0.00
2023-06-30T00:57:29.758Z,0.00
2023-06-30T00:58:01.846Z,0.00
2023-06-30T00:58:33.474Z,0.00
2023-06-30T00:58:56.267Z,0.00
2023-06-30T00:59:18.702Z,0.00
2023-06-30T00:59:53.671Z,0.00
2023-06-30T01:00:25.887Z,0.00
2023-06-30T01:00:57.737Z,0.00
2023-06-30T01:01:31.540Z,0.00
2023-06-30T01:02:02.286Z,0.00
2023-06-30T01:02:39.627Z,0.00
2023-06-30T01:02:56.879Z,0.00
2023-06-30T01:03:19.509Z,0.00
2023-06-30T01:03:53.681Z,0.00
2023-06-30T01:04:25.787Z,0.00
2023-06-30T01:04:59.111Z,0.00
2023-06-30T01:05:32.243Z,0.00
2023-06-30T01:06:02.037Z,0.00
2023-06-30T01:06:33.774Z,0.00
2023-06-30T01:06:57.286Z,0.00
2023-06-30T01:07:19.004Z,0.00
2023-06-30T01:07:53.628Z,0.00
2023-06-30T01:08:25.531Z,0.00
2023-06-30T01:08:57.599Z,0.00
2023-06-30T01:09:29.472Z,0.00
2023-06-30T01:10:02.285Z,0.00
2023-06-30T01:10:34.979Z,0.00
2023-06-30T01:10:56.121Z,0.00
2023-06-30T01:11:18.970Z,0.00
2023-06-30T01:11:53.632Z,0.00
2023-06-30T01:12:25.595Z,0.00
2023-06-30T01:12:57.657Z,0.00
2023-06-30T01:13:31.009Z,0.00
2023-06-30T01:14:01.965Z,0.00
2023-06-30T01:14:33.597Z,0.00
2023-06-30T01:15:00.805Z,0.00
2023-06-30T01:15:19.790Z,0.00
2023-06-30T01:15:53.651Z,0.00
2023-06-30T01:16:25.966Z,0.00
2023-06-30T01:16:57.604Z,0.00
2023-06-30T01:17:29.731Z,0.00
2023-06-30T01:18:02.097Z,0.00
2023-06-30T01:18:33.575Z,0.00
2023-06-30T01:18:56.791Z,0.00
2023-06-30T01:19:19.536Z,0.00
2023-06-30T01:19:54.406Z,0.00
2023-06-30T01:20:25.459Z,0.00
2023-06-30T01:20:58.684Z,0.00
2023-06-30T01:21:29.489Z,0.00
2023-06-30T01:22:03.702Z,0.00
2023-06-30T01:22:35.110Z,0.00
2023-06-30T01:22:57.501Z,0.00
2023-06-30T01:23:19.529Z,0.00
2023-06-30T01:23:53.655Z,0.00
2023-06-30T01:24:25.741Z,0.00
2023-06-30T01:24:58.216Z,0.00
2023-06-30T01:25:31.989Z,0.00
2023-06-30T01:26:02.455Z,0.00
2023-06-30T01:26:33.680Z,0.00
2023-06-30T01:26:56.663Z,0.00
2023-06-30T01:27:19.402Z,0.00
2023-06-30T01:27:53.672Z,0.00
2023-06-30T01:28:25.619Z,0.00
2023-06-30T01:28:57.655Z,0.00
2023-06-30T01:29:29.654Z,0.00
2023-06-30T01:30:03.291Z,0.00
2023-06-30T01:30:33.487Z,0.00
2023-06-30T01:31:02.966Z,0.00
2023-06-30T01:31:19.238Z,0.00
2023-06-30T01:31:53.612Z,0.00
2023-06-30T01:32:25.706Z,0.00
2023-06-30T01:32:57.711Z,0.00
2023-06-30T01:33:29.650Z,0.00
2023-06-30T01:34:01.579Z,0.00
2023-06-30T01:34:35.157Z,0.00
2023-06-30T01:34:58.472Z,0.00
2023-06-30T01:35:18.932Z,0.00
2023-06-30T01:35:53.691Z,0.00
2023-06-30T01:36:26.137Z,0.00
2023-06-30T01:36:57.507Z,0.00
2023-06-30T01:37:29.647Z,0.00
2023-06-30T01:38:01.749Z,0.00
2023-06-30T01:38:34.260Z,0.00
2023-06-30T01:38:56.773Z,0.00
2023-06-30T01:39:21.296Z,0.00
2023-06-30T01:39:53.630Z,0.00
2023-06-30T01:40:26.963Z,0.00
2023-06-30T01:40:57.833Z,0.00
2023-06-30T01:41:31.230Z,0.00
2023-06-30T01:42:01.626Z,0.00
2023-06-30T01:42:37.015Z,0.00
2023-06-30T01:42:56.414Z,0.00
2023-06-30T01:43:20.201Z,0.00
2023-06-30T01:43:53.525Z,0.00
2023-06-30T01:44:25.863Z,0.00
2023-06-30T01:44:51.535Z,0.00
2023-06-30T01:45:30.035Z,0.00
2023-06-30T01:46:02.860Z,0.00
2023-06-30T01:46:33.529Z,0.00
2023-06-30T01:46:56.729Z,0.00
2023-06-30T01:47:18.503Z,0.00
2023-06-30T01:47:53.986Z,0.00
2023-06-30T01:48:25.860Z,0.00
2023-06-30T01:48:57.521Z,0.00
2023-06-30T01:49:30.164Z,0.00
2023-06-30T01:50:02.293Z,0.00
2023-06-30T01:50:33.886Z,0.00
2023-06-30T01:50:56.470Z,0.00
2023-06-30T01:51:20.346Z,0.00
2023-06-30T01:51:53.781Z,0.00
2023-06-30T01:52:26.749Z,0.00
2023-06-30T01:52:58.099Z,0.00
2023-06-30T01:53:30.058Z,0.00
2023-06-30T01:54:01.967Z,0.00
2023-06-30T01:54:34.823Z,0.00
2023-06-30T01:54:56.438Z,0.00
2023-06-30T01:55:25.451Z,0.00
2023-06-30T01:55:53.796Z,0.00
2023-06-30T01:56:25.734Z,0.00
2023-06-30T01:56:57.678Z,0.00
2023-06-30T01:57:31.568Z,0.00
2023-06-30T01:58:01.497Z,0.00
2023-06-30T01:58:33.795Z,0.00
2023-06-30T01:58:56.420Z,0.00
2023-06-30T01:59:19.443Z,0.00
2023-06-30T01:59:53.997Z,0.00
2023-06-30T02:00:25.659Z,0.00
2023-06-30T02:01:02.484Z,0.00
2023-06-30T02:01:29.917Z,0.00
2023-06-30T02:02:05.362Z,0.00
2023-06-30T02:02:57.137Z,0.00
2023-06-30T02:03:21.665Z,0.00
2023-06-30T02:03:53.676Z,0.00
2023-06-30T02:04:26.492Z,0.00
2023-06-30T02:04:58.486Z,0.00
2023-06-30T02:05:30.794Z,0.00
2023-06-30T02:06:01.545Z,0.00
2023-06-30T02:06:35.899Z,0.00
2023-06-30T02:06:57.243Z,0.00
2023-06-30T02:07:21.141Z,0.00
2023-06-30T02:07:53.796Z,0.00
2023-06-30T02:08:25.483Z,0.00
2023-06-30T02:08:57.547Z,0.00
2023-06-30T02:09:38.876Z,0.00
2023-06-30T02:10:02.251Z,0.00
2023-06-30T02:10:33.810Z,0.00
2023-06-30T02:10:56.453Z,0.00
2023-06-30T02:11:19.133Z,0.00
2023-06-30T02:11:53.556Z,0.00
2023-06-30T02:12:25.525Z,0.00
2023-06-30T02:12:57.536Z,0.00
2023-06-30T02:13:33.634Z,0.00
2023-06-30T02:14:01.699Z,0.00
2023-06-30T02:14:40.757Z,0.00
2023-06-30T02:15:13.088Z,0.00
2023-06-30T02:15:32.473Z,0.00
2023-06-30T02:16:01.768Z,0.00
2023-06-30T02:16:24.577Z,0.00
2023-06-30T02:16:58.408Z,0.00
2023-06-30T02:17:29.816Z,0.00
2023-06-30T02:18:02.359Z,0.00
2023-06-30T02:18:33.577Z,0.00
2023-06-30T02:18:56.254Z,0.00
2023-06-30T02:19:20.331Z,0.00
2023-06-30T02:19:53.645Z,0.00
2023-06-30T02:20:28.694Z,0.00
2023-06-30T02:20:57.860Z,0.00
2023-06-30T02:21:29.996Z,0.00
2023-06-30T02:22:01.599Z,0.00
2023-06-30T02:22:34.103Z,0.00
2023-06-30T02:22:56.903Z,0.00
2023-06-30T02:23:19.269Z,0.00
2023-06-30T02:23:54.253Z,0.00
2023-06-30T02:24:25.681Z,0.00
2023-06-30T02:24:58.631Z,0.00
2023-06-30T02:25:30.118Z,0.00
2023-06-30T02:26:08.448Z,0.00
2023-06-30T02:26:33.101Z,0.00
2023-06-30T02:27:02.285Z,0.00
2023-06-30T02:27:37.842Z,0.00
2023-06-30T02:28:00.868Z,0.00
2023-06-30T02:28:22.883Z,0.00
2023-06-30T02:28:57.921Z,0.00
2023-06-30T02:29:29.435Z,0.00
2023-06-30T02:30:02.751Z,0.00
2023-06-30T02:30:33.540Z,0.00
2023-06-30T02:31:03.282Z,0.00
2023-06-30T02:31:19.652Z,0.00
2023-06-30T02:31:53.629Z,0.00
2023-06-30T02:32:25.493Z,0.00
2023-06-30T02:32:57.450Z,0.00
2023-06-30T02:33:29.496Z,0.00
2023-06-30T02:34:01.563Z,0.00
2023-06-30T02:34:33.796Z,0.00
2023-06-30T02:34:56.422Z,0.00
2023-06-30T02:35:18.966Z,0.00
2023-06-30T02:35:53.755Z,0.00
2023-06-30T02:36:25.806Z,0.00
2023-06-30T02:36:57.564Z,0.00
2023-06-30T02:37:29.674Z,0.00
2023-06-30T02:38:01.654Z,0.00
2023-06-30T02:38:33.468Z,0.00
2023-06-30T02:38:56.197Z,0.00
2023-06-30T02:39:18.634Z,0.00
2023-06-30T02:39:54.648Z,0.00
2023-06-30T02:40:25.634Z,0.00
2023-06-30T02:40:59.781Z,0.00
2023-06-30T02:41:29.482Z,0.00
2023-06-30T02:42:03.191Z,0.00
2023-06-30T02:42:33.455Z,0.00
2023-06-30T02:42:57.893Z,0.00
2023-06-30T02:43:19.012Z,0.00
2023-06-30T02:43:53.401Z,0.00
2023-06-30T02:44:25.431Z,0.00
2023-06-30T02:44:57.589Z,0.00
2023-06-30T02:45:29.628Z,0.00
2023-06-30T02:46:02.175Z,0.00
2023-06-30T02:46:33.602Z,0.00
2023-06-30T02:46:56.500Z,0.00
2023-06-30T02:47:21.185Z,0.00
2023-06-30T02:47:53.673Z,0.00
2023-06-30T02:48:25.609Z,0.00
2023-06-30T02:48:57.547Z,0.00
2023-06-30T02:49:31.038Z,0.00
2023-06-30T02:50:01.834Z,0.00
2023-06-30T02:50:33.781Z,0.00
2023-06-30T02:50:56.473Z,0.00
2023-06-30T02:51:19.320Z,0.00
2023-06-30T02:51:53.615Z,0.00
2023-06-30T02:52:25.648Z,0.00
2023-06-30T02:52:57.771Z,0.00
2023-06-30T02:53:33.114Z,0.00
2023-06-30T02:54:01.865Z,0.00
2023-06-30T02:54:33.531Z,0.00
2023-06-30T02:54:57.208Z,0.00
2023-06-30T02:55:23.029Z,0.00
2023-06-30T02:55:53.609Z,0.00
2023-06-30T02:56:25.704Z,0.00
2023-06-30T02:57:00.034Z,0.00
2023-06-30T02:57:29.649Z,0.00
2023-06-30T02:58:01.516Z,0.00
2023-06-30T02:58:33.537Z,0.00
2023-06-30T02:58:56.294Z,0.00
2023-06-30T02:59:22.218Z,0.00
2023-06-30T02:59:49.234Z,0.00
2023-06-30T03:00:27.779Z,0.00
2023-06-30T03:01:03.288Z,0.00
2023-06-30T03:01:31.729Z,0.00
2023-06-30T03:02:04.046Z,0.00
2023-06-30T03:02:42.489Z,0.00
2023-06-30T03:02:57.760Z,0.00
2023-06-30T03:03:21.321Z,0.00
2023-06-30T03:03:55.197Z,0.00
2023-06-30T03:04:26.270Z,0.00
2023-06-30T03:04:57.395Z,0.00
2023-06-30T03:05:30.186Z,0.00
2023-06-30T03:06:01.755Z,0.00
2023-06-30T03:06:33.458Z,0.00
2023-06-30T03:06:58.353Z,0.00
2023-06-30T03:07:22.180Z,0.00
2023-06-30T03:07:54.148Z,0.00
2023-06-30T03:08:26.147Z,0.00
2023-06-30T03:08:57.862Z,0.00
2023-06-30T03:09:29.708Z,0.00
2023-06-30T03:10:02.331Z,0.00
2023-06-30T03:10:33.669Z,0.00
2023-06-30T03:10:56.292Z,0.00
2023-06-30T03:11:19.390Z,0.00
2023-06-30T03:11:53.999Z,0.00
2023-06-30T03:12:26.777Z,0.00
2023-06-30T03:12:57.515Z,0.00
2023-06-30T03:13:30.121Z,0.00
2023-06-30T03:14:02.321Z,0.00
2023-06-30T03:14:33.788Z,0.00
2023-06-30T03:14:57.489Z,0.00
2023-06-30T03:15:19.637Z,0.00
2023-06-30T03:15:54.063Z,0.00
2023-06-30T03:16:31.722Z,0.00
2023-06-30T03:16:54.073Z,0.00
2023-06-30T03:17:30.072Z,0.00
2023-06-30T03:18:01.628Z,0.00
2023-06-30T03:18:33.910Z,0.00
2023-06-30T03:18:56.342Z,0.00
2023-06-30T03:19:23.117Z,0.00
2023-06-30T03:19:54.303Z,0.00
2023-06-30T03:20:26.210Z,0.00
2023-06-30T03:20:58.747Z,0.00
2023-06-30T03:21:29.652Z,0.00
2023-06-30T03:22:03.629Z,0.00
2023-06-30T03:22:33.524Z,0.00
2023-06-30T03:22:56.711Z,0.00
2023-06-30T03:23:18.906Z,0.00
2023-06-30T03:23:53.383Z,0.00
2023-06-30T03:24:26.412Z,0.00
2023-06-30T03:24:57.529Z,0.00
2023-06-30T03:25:29.782Z,0.00
2023-06-30T03:26:02.222Z,0.00
2023-06-30T03:26:33.568Z,0.00
2023-06-30T03:26:56.786Z,0.00
2023-06-30T03:27:19.228Z,0.00
2023-06-30T03:27:53.597Z,0.00
2023-06-30T03:28:25.457Z,0.00
2023-06-30T03:28:58.053Z,0.00
2023-06-30T03:29:29.634Z,0.00
2023-06-30T03:30:02.781Z,0.00
2023-06-30T03:30:33.765Z,0.00
2023-06-30T03:31:04.223Z,0.00
2023-06-30T03:31:20.520Z,0.00
2023-06-30T03:31:53.732Z,0.00
2023-06-30T03:32:25.582Z,0.00
2023-06-30T03:32:57.621Z,0.00
2023-06-30T03:33:29.817Z,0.00
2023-06-30T03:34:06.468Z,0.00
2023-06-30T03:34:33.740Z,0.00
2023-06-30T03:34:56.184Z,0.00
2023-06-30T03:35:18.862Z,0.00
2023-06-30T03:35:53.678Z,0.00
2023-06-30T03:36:25.543Z,0.00
2023-06-30T03:36:57.608Z,0.00
2023-06-30T03:37:30.111Z,0.00
2023-06-30T03:38:01.611Z,0.00
2023-06-30T03:38:33.507Z,0.00
2023-06-30T03:38:56.765Z,0.00
2023-06-30T03:39:19.435Z,0.00
2023-06-30T03:39:53.528Z,0.00
2023-06-30T03:40:25.607Z,0.36
2023-06-30T03:40:57.434Z,0.00
2023-06-30T03:41:34.115Z,0.00
2023-06-30T03:42:01.594Z,0.85
2023-06-30T03:42:33.533Z,0.85
2023-06-30T03:42:56.302Z,0.36
2023-06-30T03:43:18.738Z,0.85
2023-06-30T03:43:53.806Z,0.85
2023-06-30T03:44:25.563Z,0.85
2023-06-30T03:45:00.201Z,1.71
2023-06-30T03:45:31.100Z,0.85
2023-06-30T03:46:02.085Z,1.22
2023-06-30T03:46:34.273Z,2.08
2023-06-30T03:47:06.583Z,2.08
2023-06-30T03:47:37.629Z,2.08
2023-06-30T03:48:01.546Z,2.57
2023-06-30T03:48:23.435Z,3.43
2023-06-30T03:48:57.600Z,2.94
2023-06-30T03:49:24.772Z,3.43
2023-06-30T03:50:02.630Z,2.94
2023-06-30T03:50:33.738Z,3.43
2023-06-30T03:50:56.391Z,3.79
2023-06-30T03:51:18.636Z,3.79
2023-06-30T03:51:53.627Z,2.94
2023-06-30T03:52:26.305Z,2.57
2023-06-30T03:52:57.905Z,3.43
2023-06-30T03:53:30.607Z,2.08
2023-06-30T03:54:02.286Z,3.79
2023-06-30T03:54:33.706Z,4.28
2023-06-30T03:54:58.943Z,4.28
2023-06-30T03:55:21.702Z,3.79
2023-06-30T03:55:53.999Z,4.77
2023-06-30T03:56:25.946Z,5.14
2023-06-30T03:56:58.616Z,5.14
2023-06-30T03:57:30.500Z,5.14
2023-06-30T03:58:02.100Z,4.77
2023-06-30T03:58:36.109Z,5.99
2023-06-30T03:58:56.464Z,5.63
2023-06-30T03:59:22.548Z,5.63
2023-06-30T03:59:53.982Z,5.63
2023-06-30T04:00:32.053Z,4.28
2023-06-30T04:01:05.860Z,4.28
2023-06-30T04:01:28.314Z,2.94
2023-06-30T04:02:01.979Z,2.57
2023-06-30T04:02:35.361Z,2.57
2023-06-30T04:03:02.120Z,2.94
2023-06-30T04:03:38.961Z,2.94
2023-06-30T04:04:00.637Z,3.79
2023-06-30T04:04:23.460Z,4.28
2023-06-30T04:04:57.466Z,5.63
2023-06-30T04:05:29.760Z,4.77
2023-06-30T04:06:01.677Z,4.77
2023-06-30T04:06:33.540Z,3.79
2023-06-30T04:06:56.564Z,3.79
2023-06-30T04:07:18.900Z,3.43
2023-06-30T04:07:57.348Z,3.79
2023-06-30T04:08:26.427Z,3.43
2023-06-30T04:09:01.013Z,4.77
2023-06-30T04:09:29.914Z,4.77
2023-06-30T04:10:02.366Z,4.28
2023-06-30T04:10:33.473Z,4.28
2023-06-30T04:10:56.145Z,4.77
2023-06-30T04:11:18.595Z,4.77
2023-06-30T04:11:55.331Z,4.77
2023-06-30T04:12:26.170Z,4.77
2023-06-30T04:12:57.962Z,4.28
2023-06-30T04:13:31.663Z,4.28
2023-06-30T04:14:06.037Z,4.77
2023-06-30T04:14:30.608Z,4.77
2023-06-30T04:15:04.366Z,4.77
2023-06-30T04:15:37.454Z,4.77
2023-06-30T04:16:06.782Z,4.77
2023-06-30T04:16:24.061Z,4.77
2023-06-30T04:16:59.381Z,4.77
2023-06-30T04:17:29.681Z,4.77
2023-06-30T04:18:02.463Z,5.14
2023-06-30T04:18:33.451Z,5.14
2023-06-30T04:18:56.266Z,4.28
2023-06-30T04:19:20.043Z,5.14
2023-06-30T04:19:53.362Z,5.14
2023-06-30T04:20:25.692Z,5.99
2023-06-30T04:20:58.785Z,5.63
2023-06-30T04:21:29.541Z,5.63
2023-06-30T04:22:05.455Z,5.63
2023-06-30T04:22:33.464Z,5.63
2023-06-30T04:22:57.017Z,5.63
2023-06-30T04:23:23.005Z,5.63
2023-06-30T04:23:53.366Z,6.48
2023-06-30T04:24:25.525Z,5.14
2023-06-30T04:24:57.535Z,6.48
2023-06-30T04:25:29.547Z,5.63
2023-06-30T04:26:01.982Z,5.63
2023-06-30T04:26:33.620Z,5.99
2023-06-30T04:26:57.574Z,5.99
2023-06-30T04:27:21.329Z,6.48
2023-06-30T04:27:53.577Z,6.85
2023-06-30T04:28:25.600Z,6.48
2023-06-30T04:28:57.786Z,6.48
2023-06-30T04:29:29.750Z,6.48
2023-06-30T04:30:04.753Z,5.99
2023-06-30T04:30:33.735Z,6.85
2023-06-30T04:31:21.834Z,6.85
2023-06-30T04:31:54.792Z,7.70
2023-06-30T04:32:25.602Z,8.56
2023-06-30T04:32:52.723Z,8.19
2023-06-30T04:33:33.897Z,8.19
2023-06-30T04:33:55.789Z,8.19
2023-06-30T04:34:31.676Z,8.19
2023-06-30T04:35:02.278Z,8.56
2023-06-30T04:35:37.992Z,8.56
2023-06-30T04:36:00.277Z,8.19
2023-06-30T04:36:22.572Z,8.56
2023-06-30T04:36:57.615Z,8.19
2023-06-30T04:37:29.636Z,8.19
2023-06-30T04:38:01.879Z,8.56
2023-06-30T04:38:33.446Z,8.19
2023-06-30T04:38:56.030Z,9.05
2023-06-30T04:39:18.522Z,9.05
2023-06-30T04:39:53.703Z,9.54
2023-06-30T04:40:25.834Z,10.77
2023-06-30T04:40:57.547Z,11.62
2023-06-30T04:41:29.615Z,12.11
2023-06-30T04:42:01.635Z,13.33
2023-06-30T04:42:33.365Z,14.31
2023-06-30T04:42:56.190Z,14.31
2023-06-30T04:43:18.513Z,15.17
2023-06-30T04:43:53.939Z,15.53
2023-06-30T04:44:25.423Z,16.39
2023-06-30T04:44:58.974Z,15.17
2023-06-30T04:45:29.997Z,16.02
2023-06-30T04:46:03.103Z,15.17
2023-06-30T04:46:49.543Z,15.53
2023-06-30T04:47:21.695Z,16.88
2023-06-30T04:47:53.575Z,17.73
2023-06-30T04:48:25.445Z,18.11
2023-06-30T04:48:58.063Z,19.45
2023-06-30T04:49:29.547Z,19.45
2023-06-30T04:50:02.392Z,20.80
2023-06-30T04:50:33.611Z,20.80
2023-06-30T04:50:57.099Z,20.80
2023-06-30T04:51:19.754Z,21.16
2023-06-30T04:51:53.600Z,19.94
2023-06-30T04:52:25.487Z,19.08
2023-06-30T04:52:57.456Z,20.31
2023-06-30T04:53:29.641Z,19.94
2023-06-30T04:54:01.644Z,21.65
2023-06-30T04:54:33.371Z,21.65
2023-06-30T04:54:56.599Z,22.02
2023-06-30T04:55:22.809Z,20.31
2023-06-30T04:55:53.802Z,20.31
2023-06-30T04:56:25.809Z,19.94
2023-06-30T04:56:58.274Z,20.80
2023-06-30T04:57:29.641Z,20.31
2023-06-30T04:58:04.092Z,20.80
2023-06-30T04:58:36.428Z,20.80
2023-06-30T04:58:56.859Z,21.16
2023-06-30T04:59:20.913Z,20.31
2023-06-30T04:59:53.599Z,21.16
2023-06-30T05:00:25.601Z,22.51
2023-06-30T05:00:57.673Z,23.85
2023-06-30T05:01:26.772Z,23.36
2023-06-30T05:02:03.331Z,24.71
2023-06-30T05:02:33.717Z,24.71
2023-06-30T05:02:56.825Z,24.22
2023-06-30T05:03:20.612Z,24.71
2023-06-30T05:03:53.863Z,24.71
2023-06-30T05:04:25.569Z,24.71
2023-06-30T05:04:57.437Z,25.56
2023-06-30T05:05:29.742Z,26.42
2023-06-30T05:06:01.454Z,27.28
2023-06-30T05:06:33.857Z,28.14
2023-06-30T05:06:56.621Z,27.28
2023-06-30T05:07:19.333Z,27.65
2023-06-30T05:07:54.621Z,26.42
2023-06-30T05:08:25.394Z,25.07
2023-06-30T05:08:57.441Z,24.71
2023-06-30T05:09:29.403Z,23.36
2023-06-30T05:10:03.015Z,23.36
2023-06-30T05:10:33.396Z,22.51
2023-06-30T05:10:56.106Z,22.87
2023-06-30T05:11:18.462Z,23.85
2023-06-30T05:11:53.743Z,25.56
2023-06-30T05:12:26.111Z,25.07
2023-06-30T05:12:57.290Z,25.94
2023-06-30T05:13:30.340Z,26.79
2023-06-30T05:14:01.766Z,28.14
2023-06-30T05:14:33.873Z,27.28
2023-06-30T05:14:56.400Z,27.65
2023-06-30T05:15:22.014Z,27.28
2023-06-30T05:15:53.774Z,27.28
2023-06-30T05:16:27.455Z,27.65
2023-06-30T05:16:58.287Z,26.42
2023-06-30T05:17:34.078Z,24.71
2023-06-30T05:18:01.771Z,24.22
2023-06-30T05:18:33.283Z,22.02
2023-06-30T05:18:55.886Z,21.16
2023-06-30T05:19:18.096Z,20.31
2023-06-30T05:19:53.426Z,20.31
2023-06-30T05:20:26.344Z,19.08
2023-06-30T05:20:57.636Z,18.60
2023-06-30T05:21:30.337Z,17.73
2023-06-30T05:22:01.898Z,17.25
2023-06-30T05:22:34.216Z,16.39
2023-06-30T05:22:59.008Z,17.25
2023-06-30T05:23:19.098Z,16.88
2023-06-30T05:23:53.424Z,17.73
2023-06-30T05:24:25.820Z,18.11
2023-06-30T05:24:57.726Z,18.60
2023-06-30T05:25:29.374Z,19.08
2023-06-30T05:26:01.946Z,19.94
2023-06-30T05:26:33.263Z,21.16
2023-06-30T05:26:56.045Z,20.31
2023-06-30T05:27:20.143Z,21.65
2023-06-30T05:27:54.475Z,23.36
2023-06-30T05:28:25.545Z,23.85
2023-06-30T05:29:04.877Z,25.94
2023-06-30T05:29:30.133Z,26.42
2023-06-30T05:30:02.180Z,27.65
2023-06-30T05:30:34.792Z,27.65
2023-06-30T05:31:04.059Z,28.14
2023-06-30T05:31:19.005Z,29.48
2023-06-30T05:31:53.474Z,29.85
2023-06-30T05:32:25.921Z,30.34
2023-06-30T05:33:02.073Z,32.05
2023-06-30T05:33:32.196Z,33.76
2023-06-30T05:34:02.131Z,35.48
2023-06-30T05:34:33.725Z,38.17
2023-06-30T05:34:56.255Z,39.39
2023-06-30T05:35:19.496Z,42.45
2023-06-30T05:35:53.601Z,45.51
2023-06-30T05:36:25.656Z,49.42
2023-06-30T05:36:57.517Z,51.99
2023-06-30T05:37:29.813Z,55.41
2023-06-30T05:38:01.498Z,58.11
2023-06-30T05:38:33.633Z,59.82
2023-06-30T05:38:56.423Z,61.17
2023-06-30T05:39:19.341Z,60.19
2023-06-30T05:39:53.926Z,61.17
2023-06-30T05:40:25.235Z,60.68
2023-06-30T05:40:57.524Z,60.68
2023-06-30T05:41:29.939Z,62.02
2023-06-30T05:42:01.424Z,64.59
2023-06-30T05:42:33.578Z,68.02
2023-06-30T05:42:56.156Z,68.51
2023-06-30T05:43:18.408Z,72.42
2023-06-30T05:43:53.402Z,74.50
2023-06-30T05:44:25.499Z,76.70
2023-06-30T05:44:57.329Z,76.34
2023-06-30T05:45:29.654Z,76.34
2023-06-30T05:46:01.538Z,72.79
2023-06-30T05:46:37.322Z,68.87
2023-06-30T05:46:59.888Z,67.65
2023-06-30T05:47:38.471Z,65.45
2023-06-30T05:48:01.003Z,64.59
2023-06-30T05:48:23.301Z,65.94
2023-06-30T05:48:59.966Z,65.94
2023-06-30T05:49:29.735Z,66.80
2023-06-30T05:50:05.937Z,69.36
2023-06-30T05:50:33.992Z,71.07
2023-06-30T05:50:56.468Z,72.42
2023-06-30T05:51:19.335Z,73.65
2023-06-30T05:51:56.873Z,74.99
2023-06-30T05:52:26.058Z,75.85
2023-06-30T05:52:57.409Z,74.99
2023-06-30T05:53:30.352Z,74.14
2023-06-30T05:54:02.652Z,73.65
2023-06-30T05:54:33.534Z,72.79
2023-06-30T05:54:56.289Z,73.28
2023-06-30T05:55:22.182Z,74.99
2023-06-30T05:55:54.058Z,75.48
2023-06-30T05:56:26.083Z,75.85
2023-06-30T05:56:57.464Z,76.70
2023-06-30T05:57:29.801Z,77.19
2023-06-30T05:58:02.038Z,78.41
2023-06-30T05:58:36.882Z,79.76
2023-06-30T05:58:57.015Z,80.25
2023-06-30T05:59:20.949Z,81.10
2023-06-30T05:59:54.010Z,81.48
2023-06-30T06:00:30.608Z,83.19
2023-06-30T06:01:31.069Z,88.45
2023-06-30T06:02:07.047Z,90.16
2023-06-30T06:02:34.428Z,91.51
2023-06-30T06:02:57.085Z,92.36
2023-06-30T06:03:19.450Z,94.93
2023-06-30T06:03:55.186Z,98.36
2023-06-30T06:04:25.821Z,101.90
2023-06-30T06:04:57.930Z,105.33
2023-06-30T06:05:30.061Z,108.39
2023-06-30T06:06:02.243Z,109.24
2023-06-30T06:06:33.318Z,108.88
2023-06-30T06:06:56.196Z,107.90
2023-06-30T06:07:18.424Z,112.67
2023-06-30T06:07:53.506Z,117.07
2023-06-30T06:08:25.826Z,122.70
2023-06-30T06:08:57.906Z,129.19
2023-06-30T06:09:30.040Z,135.67
2023-06-30T06:10:02.496Z,140.07
2023-06-30T06:10:33.946Z,144.85
2023-06-30T06:10:56.750Z,146.56
2023-06-30T06:11:19.237Z,152.68
2023-06-30T06:11:54.213Z,158.30
2023-06-30T06:12:25.375Z,160.02
2023-06-30T06:12:57.675Z,156.59
2023-06-30T06:13:29.836Z,154.75
2023-06-30T06:14:04.792Z,152.19
2023-06-30T06:14:33.441Z,149.61
2023-06-30T06:14:56.315Z,150.47
2023-06-30T06:15:18.996Z,147.41
2023-06-30T06:15:53.860Z,144.36
2023-06-30T06:16:26.364Z,142.64
2023-06-30T06:16:57.749Z,137.87
2023-06-30T06:17:30.548Z,130.90
2023-06-30T06:18:08.310Z,126.12
2023-06-30T06:18:30.441Z,120.50
2023-06-30T06:19:01.733Z,117.44
2023-06-30T06:19:37.342Z,112.67
2023-06-30T06:19:59.867Z,108.88
2023-06-30T06:20:22.405Z,101.90
2023-06-30T06:20:57.239Z,100.56
2023-06-30T06:21:30.227Z,102.76
2023-06-30T06:22:02.841Z,104.48
2023-06-30T06:22:33.767Z,102.76
2023-06-30T06:22:56.173Z,100.56
2023-06-30T06:23:18.639Z,100.56
2023-06-30T06:23:53.429Z,103.13
2023-06-30T06:24:19.326Z,107.04
2023-06-30T06:24:59.169Z,114.87
2023-06-30T06:25:29.703Z,120.50
2023-06-30T06:26:05.393Z,131.88
2023-06-30T06:26:36.102Z,141.78
2023-06-30T06:26:56.426Z,146.56
2023-06-30T06:27:19.829Z,145.70
2023-06-30T06:27:53.781Z,143.13
2023-06-30T06:28:25.426Z,145.70
2023-06-30T06:28:58.024Z,147.05
2023-06-30T06:29:30.208Z,143.99
2023-06-30T06:30:03.030Z,143.13
2023-06-30T06:30:33.362Z,140.93
2023-06-30T06:31:03.870Z,143.50
2023-06-30T06:31:21.357Z,152.68
2023-06-30T06:31:54.106Z,157.44
2023-06-30T06:32:27.644Z,161.36
2023-06-30T06:33:03.191Z,159.53
2023-06-30T06:33:25.733Z,161.36
2023-06-30T06:34:01.831Z,167.36
2023-06-30T06:34:36.462Z,175.67
2023-06-30T06:34:56.213Z,179.10
2023-06-30T06:35:18.723Z,186.44
2023-06-30T06:35:53.647Z,193.05
2023-06-30T06:36:42.151Z,193.90